sensor_id;sensor_type;location;lat;lon;timestamp;pressure;altitude;pressure_sealevel;temperature;humidity
34081;BME280;20358;50.272;19.026;2023-02-19T00:00:02;98001.97;;;3.26;75.14
34081;BME280;20358;50.272;19.026;2023-02-19T00:03:13;97991.84;;;3.20;74.77
34081;BME280;20358;50.272;19.026;2023-02-19T00:06:25;97999.75;;;3.18;75.07
34081;BME280;20358;50.272;19.026;2023-02-19T00:09:32;97997.44;;;3.29;75.65
34081;BME280;20358;50.272;19.026;2023-02-19T00:12:39;97999.06;;;3.32;75.78
34081;BME280;20358;50.272;19.026;2023-02-19T00:15:45;97959.00;;;3.16;74.47
34081;BME280;20358;50.272;19.026;2023-02-19T00:18:52;97988.91;;;3.43;74.69
34081;BME280;20358;50.272;19.026;2023-02-19T00:22:03;97987.28;;;3.57;74.81
34081;BME280;20358;50.272;19.026;2023-02-19T00:25:09;97986.13;;;3.63;74.38
34081;BME280;20358;50.272;19.026;2023-02-19T00:28:15;97993.75;;;3.66;75.50
34081;BME280;20358;50.272;19.026;2023-02-19T00:31:23;98001.59;;;3.66;75.07
34081;BME280;20358;50.272;19.026;2023-02-19T00:34:33;97990.84;;;3.72;74.71
34081;BME280;20358;50.272;19.026;2023-02-19T00:37:43;97978.53;;;3.74;75.41
34081;BME280;20358;50.272;19.026;2023-02-19T00:40:49;97978.88;;;3.68;75.44
34081;BME280;20358;50.272;19.026;2023-02-19T00:43:59;97985.28;;;3.62;75.82
34081;BME280;20358;50.272;19.026;2023-02-19T00:47:06;97980.09;;;3.61;75.52
34081;BME280;20358;50.272;19.026;2023-02-19T00:50:14;97984.72;;;3.56;75.24
34081;BME280;20358;50.272;19.026;2023-02-19T00:53:23;97981.34;;;3.54;74.40
34081;BME280;20358;50.272;19.026;2023-02-19T00:56:30;97984.56;;;3.59;74.54
34081;BME280;20358;50.272;19.026;2023-02-19T00:59:35;97979.84;;;3.50;74.07
34081;BME280;20358;50.272;19.026;2023-02-19T01:02:42;97970.25;;;3.50;74.17
34081;BME280;20358;50.272;19.026;2023-02-19T01:05:48;97982.47;;;3.50;74.06
34081;BME280;20358;50.272;19.026;2023-02-19T01:08:58;97968.19;;;3.40;74.61
34081;BME280;20358;50.272;19.026;2023-02-19T01:12:03;97989.06;;;3.40;75.92
34081;BME280;20358;50.272;19.026;2023-02-19T01:15:10;97976.03;;;3.40;75.66
34081;BME280;20358;50.272;19.026;2023-02-19T01:18:16;97965.84;;;3.51;76.53
34081;BME280;20358;50.272;19.026;2023-02-19T01:21:25;97942.25;;;3.37;76.40
34081;BME280;20358;50.272;19.026;2023-02-19T01:24:35;97003.75;;;-2.35;76.09
34081;BME280;20358;50.272;19.026;2023-02-19T01:27:42;97957.56;;;3.43;76.53
34081;BME280;20358;50.272;19.026;2023-02-19T01:30:48;97583.06;;;0.91;76.69
34081;BME280;20358;50.272;19.026;2023-02-19T01:33:57;97947.56;;;3.18;77.15
34081;BME280;20358;50.272;19.026;2023-02-19T01:37:05;97902.84;;;2.91;77.37
34081;BME280;20358;50.272;19.026;2023-02-19T01:40:17;97945.16;;;3.31;77.61
34081;BME280;20358;50.272;19.026;2023-02-19T01:43:23;97933.66;;;3.35;77.38
34081;BME280;20358;50.272;19.026;2023-02-19T01:46:31;97918.47;;;3.26;76.95
34081;BME280;20358;50.272;19.026;2023-02-19T01:49:40;97934.88;;;3.45;77.89
34081;BME280;20358;50.272;19.026;2023-02-19T01:52:51;97937.03;;;3.37;77.22
34081;BME280;20358;50.272;19.026;2023-02-19T01:56:01;97931.81;;;3.37;77.29
34081;BME280;20358;50.272;19.026;2023-02-19T01:59:09;97921.88;;;3.43;78.33
34081;BME280;20358;50.272;19.026;2023-02-19T02:02:15;97911.78;;;3.37;78.04
34081;BME280;20358;50.272;19.026;2023-02-19T02:05:35;97907.06;;;3.44;77.13
34081;BME280;20358;50.272;19.026;2023-02-19T02:08:46;97910.19;;;3.35;78.04
34081;BME280;20358;50.272;19.026;2023-02-19T02:12:13;97909.72;;;3.27;77.26
34081;BME280;20358;50.272;19.026;2023-02-19T02:15:19;97905.19;;;3.30;78.11
34081;BME280;20358;50.272;19.026;2023-02-19T02:18:41;97892.22;;;3.29;77.68
34081;BME280;20358;50.272;19.026;2023-02-19T02:22:05;97897.44;;;3.29;77.04
34081;BME280;20358;50.272;19.026;2023-02-19T02:25:29;97897.28;;;3.32;78.10
34081;BME280;20358;50.272;19.026;2023-02-19T02:29:24;97891.38;;;3.28;77.35
34081;BME280;20358;50.272;19.026;2023-02-19T02:32:55;97727.53;;;2.04;77.79
34081;BME280;20358;50.272;19.026;2023-02-19T02:36:09;97887.16;;;3.26;77.45
34081;BME280;20358;50.272;19.026;2023-02-19T02:39:24;97890.22;;;3.34;78.01
34081;BME280;20358;50.272;19.026;2023-02-19T02:42:38;97872.19;;;3.29;77.33
34081;BME280;20358;50.272;19.026;2023-02-19T02:45:47;97878.25;;;3.45;78.16
34081;BME280;20358;50.272;19.026;2023-02-19T02:49:08;97867.78;;;3.30;77.72
34081;BME280;20358;50.272;19.026;2023-02-19T02:52:18;97881.28;;;3.38;78.20
34081;BME280;20358;50.272;19.026;2023-02-19T02:55:42;97873.28;;;3.41;77.18
34081;BME280;20358;50.272;19.026;2023-02-19T02:58:52;97810.00;;;3.04;76.96
34081;BME280;20358;50.272;19.026;2023-02-19T03:02:06;97866.81;;;3.32;76.48
34081;BME280;20358;50.272;19.026;2023-02-19T03:05:19;97860.41;;;3.38;77.58
34081;BME280;20358;50.272;19.026;2023-02-19T03:08:51;97842.06;;;3.39;77.22
34081;BME280;20358;50.272;19.026;2023-02-19T03:12:05;97861.69;;;3.46;77.37
34081;BME280;20358;50.272;19.026;2023-02-19T03:15:35;97866.72;;;3.34;76.81
34081;BME280;20358;50.272;19.026;2023-02-19T03:19:19;97870.75;;;3.24;76.85
34081;BME280;20358;50.272;19.026;2023-02-19T03:22:35;97870.09;;;3.03;77.87
34081;BME280;20358;50.272;19.026;2023-02-19T03:25:46;97881.03;;;3.10;77.65
34081;BME280;20358;50.272;19.026;2023-02-19T03:29:14;97874.47;;;3.02;78.10
34081;BME280;20358;50.272;19.026;2023-02-19T03:32:41;97852.25;;;2.95;77.49
34081;BME280;20358;50.272;19.026;2023-02-19T03:35:56;97841.66;;;2.81;77.16
34081;BME280;20358;50.272;19.026;2023-02-19T03:39:14;97867.94;;;2.94;78.54
34081;BME280;20358;50.272;19.026;2023-02-19T03:42:37;97873.09;;;2.95;77.99
34081;BME280;20358;50.272;19.026;2023-02-19T03:45:57;97872.66;;;2.87;77.56
34081;BME280;20358;50.272;19.026;2023-02-19T03:49:20;97872.56;;;2.89;78.62
34081;BME280;20358;50.272;19.026;2023-02-19T03:52:40;97866.69;;;2.85;78.73
34081;BME280;20358;50.272;19.026;2023-02-19T03:56:08;97861.75;;;2.79;78.78
34081;BME280;20358;50.272;19.026;2023-02-19T03:59:26;97858.06;;;2.83;79.04
34081;BME280;20358;50.272;19.026;2023-02-19T04:02:47;97856.34;;;2.99;78.60
34081;BME280;20358;50.272;19.026;2023-02-19T04:06:04;97831.28;;;2.97;78.39
34081;BME280;20358;50.272;19.026;2023-02-19T04:09:18;97840.41;;;3.05;77.98
34081;BME280;20358;50.272;19.026;2023-02-19T04:12:39;97829.63;;;3.12;78.06
34081;BME280;20358;50.272;19.026;2023-02-19T04:15:53;97849.78;;;3.25;77.74
34081;BME280;20358;50.272;19.026;2023-02-19T04:19:07;97797.13;;;3.01;78.20
34081;BME280;20358;50.272;19.026;2023-02-19T04:22:18;97840.03;;;3.29;77.54
34081;BME280;20358;50.272;19.026;2023-02-19T04:25:28;97792.69;;;3.03;77.89
34081;BME280;20358;50.272;19.026;2023-02-19T04:28:40;97840.91;;;3.45;77.21
34081;BME280;20358;50.272;19.026;2023-02-19T04:31:47;97838.53;;;3.56;77.44
34081;BME280;20358;50.272;19.026;2023-02-19T04:34:53;97765.63;;;3.22;77.14
34081;BME280;20358;50.272;19.026;2023-02-19T04:37:59;97824.41;;;3.60;76.15
34081;BME280;20358;50.272;19.026;2023-02-19T04:41:06;97819.00;;;3.63;77.17
34081;BME280;20358;50.272;19.026;2023-02-19T04:44:15;97814.72;;;3.62;77.07
34081;BME280;20358;50.272;19.026;2023-02-19T04:47:22;97813.00;;;3.61;76.59
34081;BME280;20358;50.272;19.026;2023-02-19T04:50:27;97795.31;;;3.66;76.19
34081;BME280;20358;50.272;19.026;2023-02-19T04:53:34;97786.16;;;3.59;76.22
34081;BME280;20358;50.272;19.026;2023-02-19T04:56:41;97792.72;;;3.66;75.88
34081;BME280;20358;50.272;19.026;2023-02-19T04:59:50;97779.41;;;3.71;77.30
34081;BME280;20358;50.272;19.026;2023-02-19T05:02:55;97782.25;;;3.66;75.96
34081;BME280;20358;50.272;19.026;2023-02-19T05:06:03;97769.31;;;3.64;76.30
34081;BME280;20358;50.272;19.026;2023-02-19T05:09:10;97761.16;;;3.71;76.25
34081;BME280;20358;50.272;19.026;2023-02-19T05:12:17;97740.50;;;3.66;76.42
34081;BME280;20358;50.272;19.026;2023-02-19T05:15:25;97759.00;;;3.77;75.99
34081;BME280;20358;50.272;19.026;2023-02-19T05:18:32;97759.19;;;3.74;76.09
34081;BME280;20358;50.272;19.026;2023-02-19T05:21:38;97761.78;;;3.74;76.65
34081;BME280;20358;50.272;19.026;2023-02-19T05:24:45;97754.75;;;3.76;75.98
34081;BME280;20358;50.272;19.026;2023-02-19T05:27:51;97740.84;;;3.76;76.46
34081;BME280;20358;50.272;19.026;2023-02-19T05:31:20;97745.88;;;3.79;76.78
34081;BME280;20358;50.272;19.026;2023-02-19T05:34:26;97763.94;;;3.83;76.08
34081;BME280;20358;50.272;19.026;2023-02-19T05:37:32;97765.25;;;3.90;76.41
34081;BME280;20358;50.272;19.026;2023-02-19T05:40:39;97767.28;;;3.85;77.25
34081;BME280;20358;50.272;19.026;2023-02-19T05:43:47;97752.16;;;3.60;77.94
34081;BME280;20358;50.272;19.026;2023-02-19T05:46:57;97773.69;;;3.64;78.25
34081;BME280;20358;50.272;19.026;2023-02-19T05:50:04;97766.88;;;3.46;79.07
34081;BME280;20358;50.272;19.026;2023-02-19T05:53:11;97773.44;;;3.22;79.78
34081;BME280;20358;50.272;19.026;2023-02-19T05:56:38;97767.56;;;3.34;79.93
34081;BME280;20358;50.272;19.026;2023-02-19T05:59:44;97755.00;;;3.25;80.21
34081;BME280;20358;50.272;19.026;2023-02-19T06:02:54;97719.72;;;3.02;79.63
34081;BME280;20358;50.272;19.026;2023-02-19T06:06:02;97750.34;;;3.30;80.55
34081;BME280;20358;50.272;19.026;2023-02-19T06:09:09;97753.81;;;3.15;79.93
34081;BME280;20358;50.272;19.026;2023-02-19T06:12:15;97761.75;;;3.29;79.92
34081;BME280;20358;50.272;19.026;2023-02-19T06:15:22;97757.13;;;3.34;79.20
34081;BME280;20358;50.272;19.026;2023-02-19T06:18:30;97754.25;;;3.23;78.91
34081;BME280;20358;50.272;19.026;2023-02-19T06:21:36;97763.03;;;3.37;78.74
34081;BME280;20358;50.272;19.026;2023-02-19T06:24:42;97762.16;;;3.37;78.21
34081;BME280;20358;50.272;19.026;2023-02-19T06:27:48;97762.91;;;3.39;78.14
34081;BME280;20358;50.272;19.026;2023-02-19T06:30:54;97755.34;;;3.34;78.54
34081;BME280;20358;50.272;19.026;2023-02-19T06:34:05;97761.41;;;3.35;78.24
34081;BME280;20358;50.272;19.026;2023-02-19T06:37:10;97766.81;;;3.32;77.98
34081;BME280;20358;50.272;19.026;2023-02-19T06:40:17;97739.00;;;3.31;78.62
34081;BME280;20358;50.272;19.026;2023-02-19T06:43:22;97732.19;;;3.44;77.88
34081;BME280;20358;50.272;19.026;2023-02-19T06:46:29;97749.28;;;3.49;77.29
34081;BME280;20358;50.272;19.026;2023-02-19T06:49:38;97749.75;;;3.56;78.17
34081;BME280;20358;50.272;19.026;2023-02-19T06:52:44;97751.47;;;3.57;77.93
34081;BME280;20358;50.272;19.026;2023-02-19T06:55:56;97744.22;;;3.62;77.46
34081;BME280;20358;50.272;19.026;2023-02-19T06:59:05;97740.16;;;3.72;77.53
34081;BME280;20358;50.272;19.026;2023-02-19T07:02:12;97735.09;;;3.69;78.08
34081;BME280;20358;50.272;19.026;2023-02-19T07:05:21;97739.06;;;3.76;77.18
34081;BME280;20358;50.272;19.026;2023-02-19T07:08:27;97725.16;;;3.76;77.84
34081;BME280;20358;50.272;19.026;2023-02-19T07:11:36;97731.03;;;3.79;78.42
34081;BME280;20358;50.272;19.026;2023-02-19T07:14:43;97738.81;;;3.81;77.76
34081;BME280;20358;50.272;19.026;2023-02-19T07:17:49;97737.84;;;3.82;77.89
34081;BME280;20358;50.272;19.026;2023-02-19T07:21:03;97742.50;;;3.77;78.08
34081;BME280;20358;50.272;19.026;2023-02-19T07:24:12;97728.41;;;3.79;78.60
34081;BME280;20358;50.272;19.026;2023-02-19T07:27:17;97745.97;;;3.77;78.46
34081;BME280;20358;50.272;19.026;2023-02-19T07:30:24;97730.47;;;3.74;78.86
34081;BME280;20358;50.272;19.026;2023-02-19T07:33:30;97713.63;;;3.64;78.30
34081;BME280;20358;50.272;19.026;2023-02-19T07:36:39;97736.03;;;3.68;79.01
34081;BME280;20358;50.272;19.026;2023-02-19T07:39:45;97723.00;;;3.68;79.35
34081;BME280;20358;50.272;19.026;2023-02-19T07:42:52;97718.63;;;3.68;78.93
34081;BME280;20358;50.272;19.026;2023-02-19T07:45:57;97717.41;;;3.74;79.25
34081;BME280;20358;50.272;19.026;2023-02-19T07:49:07;97713.38;;;3.84;78.68
34081;BME280;20358;50.272;19.026;2023-02-19T07:52:15;97707.97;;;3.87;78.85
34081;BME280;20358;50.272;19.026;2023-02-19T07:55:21;97712.00;;;3.93;79.24
34081;BME280;20358;50.272;19.026;2023-02-19T07:58:27;97713.31;;;4.00;78.95
34081;BME280;20358;50.272;19.026;2023-02-19T08:01:34;97683.25;;;3.93;78.80
34081;BME280;20358;50.272;19.026;2023-02-19T08:04:56;97675.53;;;4.05;79.29
34081;BME280;20358;50.272;19.026;2023-02-19T08:08:06;97692.56;;;4.12;78.74
34081;BME280;20358;50.272;19.026;2023-02-19T08:11:13;97691.03;;;4.08;78.52
34081;BME280;20358;50.272;19.026;2023-02-19T08:14:35;97697.81;;;4.26;78.68
34081;BME280;20358;50.272;19.026;2023-02-19T08:17:40;97703.88;;;4.27;78.07
34081;BME280;20358;50.272;19.026;2023-02-19T08:20:47;97694.56;;;4.23;78.75
34081;BME280;20358;50.272;19.026;2023-02-19T08:23:56;97712.63;;;4.12;79.11
34081;BME280;20358;50.272;19.026;2023-02-19T08:27:06;97702.56;;;4.20;78.80
34081;BME280;20358;50.272;19.026;2023-02-19T08:30:14;97716.28;;;4.23;78.41
34081;BME280;20358;50.272;19.026;2023-02-19T08:33:21;97715.63;;;4.20;78.50
34081;BME280;20358;50.272;19.026;2023-02-19T08:36:26;97730.06;;;4.11;78.38
34081;BME280;20358;50.272;19.026;2023-02-19T08:39:35;97735.00;;;4.02;79.01
34081;BME280;20358;50.272;19.026;2023-02-19T08:42:41;97731.38;;;4.04;79.37
34081;BME280;20358;50.272;19.026;2023-02-19T08:45:52;97730.22;;;3.94;78.99
34081;BME280;20358;50.272;19.026;2023-02-19T08:48:59;97740.84;;;3.76;77.50
34081;BME280;20358;50.272;19.026;2023-02-19T08:52:05;97728.78;;;3.73;78.41
34081;BME280;20358;50.272;19.026;2023-02-19T08:55:14;97729.66;;;3.58;77.82
34081;BME280;20358;50.272;19.026;2023-02-19T08:58:20;97712.38;;;3.71;78.15
34081;BME280;20358;50.272;19.026;2023-02-19T09:01:27;97713.69;;;3.78;78.04
34081;BME280;20358;50.272;19.026;2023-02-19T09:04:34;97709.75;;;3.71;77.96
34081;BME280;20358;50.272;19.026;2023-02-19T09:07:40;97713.41;;;3.68;78.91
34081;BME280;20358;50.272;19.026;2023-02-19T09:10:59;97730.56;;;3.88;79.18
34081;BME280;20358;50.272;19.026;2023-02-19T09:14:05;97730.47;;;3.74;78.45
34081;BME280;20358;50.272;19.026;2023-02-19T09:17:12;97750.25;;;3.78;79.45
34081;BME280;20358;50.272;19.026;2023-02-19T09:20:17;97734.09;;;3.72;78.94
34081;BME280;20358;50.272;19.026;2023-02-19T09:23:24;97738.28;;;3.74;79.76
34081;BME280;20358;50.272;19.026;2023-02-19T09:26:33;97735.63;;;3.60;79.43
34081;BME280;20358;50.272;19.026;2023-02-19T09:29:40;97757.69;;;3.70;78.79
34081;BME280;20358;50.272;19.026;2023-02-19T09:32:46;97764.09;;;3.64;78.93
34081;BME280;20358;50.272;19.026;2023-02-19T09:35:52;97763.59;;;3.58;78.58
34081;BME280;20358;50.272;19.026;2023-02-19T09:38:58;97780.59;;;3.34;78.52
34081;BME280;20358;50.272;19.026;2023-02-19T09:42:14;97773.00;;;3.14;78.24
34081;BME280;20358;50.272;19.026;2023-02-19T09:45:25;97765.69;;;3.20;78.17
34081;BME280;20358;50.272;19.026;2023-02-19T09:48:32;97794.91;;;3.27;76.43
34081;BME280;20358;50.272;19.026;2023-02-19T09:51:41;97772.91;;;3.15;76.05
34081;BME280;20358;50.272;19.026;2023-02-19T09:54:51;97796.06;;;3.05;75.35
34081;BME280;20358;50.272;19.026;2023-02-19T09:58:19;97787.53;;;3.02;75.79
34081;BME280;20358;50.272;19.026;2023-02-19T10:01:37;97782.00;;;2.75;75.00
34081;BME280;20358;50.272;19.026;2023-02-19T10:04:46;97743.09;;;2.55;75.37
34081;BME280;20358;50.272;19.026;2023-02-19T10:07:56;97800.69;;;2.83;74.95
34081;BME280;20358;50.272;19.026;2023-02-19T10:11:04;97805.16;;;2.81;75.41
34081;BME280;20358;50.272;19.026;2023-02-19T10:14:20;97824.41;;;2.79;76.00
34081;BME280;20358;50.272;19.026;2023-02-19T10:17:33;97841.06;;;2.76;75.10
34081;BME280;20358;50.272;19.026;2023-02-19T10:20:40;97866.22;;;2.60;73.17
34081;BME280;20358;50.272;19.026;2023-02-19T10:23:49;97840.91;;;2.45;74.39
34081;BME280;20358;50.272;19.026;2023-02-19T10:26:59;97851.34;;;2.45;74.43
34081;BME280;20358;50.272;19.026;2023-02-19T10:30:19;97860.69;;;2.32;74.17
34081;BME280;20358;50.272;19.026;2023-02-19T10:33:28;97861.28;;;2.20;73.54
34081;BME280;20358;50.272;19.026;2023-02-19T10:36:37;97859.44;;;2.22;75.14
34081;BME280;20358;50.272;19.026;2023-02-19T10:39:49;97859.59;;;2.19;75.01
34081;BME280;20358;50.272;19.026;2023-02-19T10:42:57;97873.94;;;2.27;74.27
34081;BME280;20358;50.272;19.026;2023-02-19T10:46:16;97864.38;;;2.28;74.93
34081;BME280;20358;50.272;19.026;2023-02-19T10:49:29;97869.19;;;2.35;74.22
34081;BME280;20358;50.272;19.026;2023-02-19T10:52:39;97877.69;;;2.39;72.95
34081;BME280;20358;50.272;19.026;2023-02-19T10:55:44;97874.19;;;2.40;72.55
34081;BME280;20358;50.272;19.026;2023-02-19T10:58:51;97892.56;;;2.37;72.28
34081;BME280;20358;50.272;19.026;2023-02-19T11:02:02;97871.09;;;2.15;72.01
34081;BME280;20358;50.272;19.026;2023-02-19T11:05:22;97914.16;;;2.22;71.97
34081;BME280;20358;50.272;19.026;2023-02-19T11:08:28;97905.09;;;2.12;73.05
34081;BME280;20358;50.272;19.026;2023-02-19T11:11:39;97927.69;;;2.11;72.53
34081;BME280;20358;50.272;19.026;2023-02-19T11:14:45;97932.53;;;2.00;72.29
34081;BME280;20358;50.272;19.026;2023-02-19T11:18:03;97934.69;;;1.91;71.95
34081;BME280;20358;50.272;19.026;2023-02-19T11:21:24;97950.84;;;1.99;71.97
34081;BME280;20358;50.272;19.026;2023-02-19T11:24:37;97955.06;;;2.01;70.69
34081;BME280;20358;50.272;19.026;2023-02-19T11:27:56;97889.75;;;1.68;71.69
34081;BME280;20358;50.272;19.026;2023-02-19T11:31:21;97943.94;;;1.98;70.63
34081;BME280;20358;50.272;19.026;2023-02-19T11:34:31;97952.56;;;2.00;71.17
34081;BME280;20358;50.272;19.026;2023-02-19T11:37:56;97952.69;;;1.97;70.42
34081;BME280;20358;50.272;19.026;2023-02-19T11:41:12;97950.84;;;1.99;69.67
34081;BME280;20358;50.272;19.026;2023-02-19T11:44:38;97959.84;;;1.92;70.23
34081;BME280;20358;50.272;19.026;2023-02-19T11:48:15;97965.91;;;1.92;71.79
34081;BME280;20358;50.272;19.026;2023-02-19T11:51:47;97976.91;;;1.99;71.63
34081;BME280;20358;50.272;19.026;2023-02-19T11:55:22;97980.84;;;1.87;70.42
34081;BME280;20358;50.272;19.026;2023-02-19T11:58:57;97912.66;;;1.42;71.47
34081;BME280;20358;50.272;19.026;2023-02-19T12:02:34;97994.47;;;1.94;70.24
34081;BME280;20358;50.272;19.026;2023-02-19T12:06:12;98001.78;;;1.86;71.00
34081;BME280;20358;50.272;19.026;2023-02-19T12:09:44;97995.72;;;1.85;70.95
34081;BME280;20358;50.272;19.026;2023-02-19T12:13:12;98003.16;;;1.93;71.55
34081;BME280;20358;50.272;19.026;2023-02-19T12:16:35;98018.78;;;1.93;71.45
34081;BME280;20358;50.272;19.026;2023-02-19T12:20:04;98020.41;;;1.76;71.01
34081;BME280;20358;50.272;19.026;2023-02-19T12:23:37;98015.69;;;1.66;72.51
34081;BME280;20358;50.272;19.026;2023-02-19T12:27:18;98029.16;;;1.55;71.60
34081;BME280;20358;50.272;19.026;2023-02-19T12:30:48;98033.38;;;1.58;72.35
34081;BME280;20358;50.272;19.026;2023-02-19T12:34:34;98036.97;;;1.55;72.54
34081;BME280;20358;50.272;19.026;2023-02-19T12:38:16;98022.25;;;1.54;72.51
34081;BME280;20358;50.272;19.026;2023-02-19T12:41:38;98039.81;;;1.49;72.48
34081;BME280;20358;50.272;19.026;2023-02-19T12:45:00;98046.22;;;1.42;72.40
34081;BME280;20358;50.272;19.026;2023-02-19T12:48:27;98047.56;;;1.31;72.87
34081;BME280;20358;50.272;19.026;2023-02-19T12:51:42;98045.28;;;1.03;71.24
34081;BME280;20358;50.272;19.026;2023-02-19T12:54:54;98053.84;;;1.05;72.20
34081;BME280;20358;50.272;19.026;2023-02-19T12:58:12;98066.81;;;1.06;72.16
34081;BME280;20358;50.272;19.026;2023-02-19T13:01:32;98061.88;;;0.99;71.75
34081;BME280;20358;50.272;19.026;2023-02-19T13:04:49;98083.72;;;0.73;71.56
34081;BME280;20358;50.272;19.026;2023-02-19T13:08:12;98078.72;;;0.90;70.49
34081;BME280;20358;50.272;19.026;2023-02-19T13:11:30;97980.41;;;0.36;70.42
34081;BME280;20358;50.272;19.026;2023-02-19T13:14:45;98080.09;;;0.99;69.83
34081;BME280;20358;50.272;19.026;2023-02-19T13:18:00;98075.63;;;0.81;69.92
34081;BME280;20358;50.272;19.026;2023-02-19T13:21:12;98099.19;;;0.76;69.36
34081;BME280;20358;50.272;19.026;2023-02-19T13:24:42;98095.09;;;0.71;68.51
34081;BME280;20358;50.272;19.026;2023-02-19T13:28:09;98112.00;;;0.81;68.37
34081;BME280;20358;50.272;19.026;2023-02-19T13:31:43;98119.28;;;0.94;68.23
34081;BME280;20358;50.272;19.026;2023-02-19T13:35:23;98126.78;;;0.80;67.41
34081;BME280;20358;50.272;19.026;2023-02-19T13:38:39;98176.22;;;0.79;67.41
34081;BME280;20358;50.272;19.026;2023-02-19T13:41:51;98139.16;;;0.74;67.59
34081;BME280;20358;50.272;19.026;2023-02-19T13:45:02;98131.91;;;0.82;67.21
34081;BME280;20358;50.272;19.026;2023-02-19T13:48:25;98132.69;;;0.84;65.78
34081;BME280;20358;50.272;19.026;2023-02-19T13:52:00;98143.22;;;1.02;66.00
34081;BME280;20358;50.272;19.026;2023-02-19T13:55:44;98180.81;;;0.94;64.44
34081;BME280;20358;50.272;19.026;2023-02-19T13:58:56;98167.56;;;0.78;63.32
34081;BME280;20358;50.272;19.026;2023-02-19T14:06:00;98153.16;;;0.93;64.72
34081;BME280;20358;50.272;19.026;2023-02-19T14:09:43;98160.84;;;0.96;64.88
34081;BME280;20358;50.272;19.026;2023-02-19T14:12:49;98167.41;;;0.83;64.57
34081;BME280;20358;50.272;19.026;2023-02-19T14:15:56;98189.28;;;0.99;64.29
34081;BME280;20358;50.272;19.026;2023-02-19T14:19:02;98177.09;;;1.01;64.89
34081;BME280;20358;50.272;19.026;2023-02-19T14:22:49;98202.19;;;1.02;64.58
34081;BME280;20358;50.272;19.026;2023-02-19T14:26:08;98188.88;;;1.09;63.40
34081;BME280;20358;50.272;19.026;2023-02-19T14:29:16;98198.50;;;1.07;64.26
34081;BME280;20358;50.272;19.026;2023-02-19T14:32:23;98216.28;;;1.18;64.39
34081;BME280;20358;50.272;19.026;2023-02-19T14:35:35;98211.19;;;1.15;63.92
34081;BME280;20358;50.272;19.026;2023-02-19T14:38:47;98214.09;;;1.07;63.40
34081;BME280;20358;50.272;19.026;2023-02-19T14:42:04;98207.16;;;1.08;62.64
34081;BME280;20358;50.272;19.026;2023-02-19T14:45:15;98236.22;;;0.96;63.10
34081;BME280;20358;50.272;19.026;2023-02-19T14:48:29;98223.09;;;0.99;63.38
34081;BME280;20358;50.272;19.026;2023-02-19T14:51:42;98215.28;;;0.99;62.82
34081;BME280;20358;50.272;19.026;2023-02-19T14:54:56;98206.72;;;0.97;62.63
34081;BME280;20358;50.272;19.026;2023-02-19T14:58:14;98227.34;;;1.01;62.00
34081;BME280;20358;50.272;19.026;2023-02-19T15:01:24;98220.03;;;1.11;62.54
34081;BME280;20358;50.272;19.026;2023-02-19T15:04:35;98222.69;;;1.09;62.16
34081;BME280;20358;50.272;19.026;2023-02-19T15:07:42;98238.16;;;1.12;61.16
34081;BME280;20358;50.272;19.026;2023-02-19T15:10:49;98237.47;;;1.09;61.03
34081;BME280;20358;50.272;19.026;2023-02-19T15:14:02;98251.00;;;0.94;60.35
34081;BME280;20358;50.272;19.026;2023-02-19T15:17:16;98244.31;;;0.88;61.40
34081;BME280;20358;50.272;19.026;2023-02-19T15:20:33;98257.34;;;0.87;60.80
34081;BME280;20358;50.272;19.026;2023-02-19T15:23:41;98265.16;;;0.87;60.98
34081;BME280;20358;50.272;19.026;2023-02-19T15:26:50;98277.19;;;0.89;60.79
34081;BME280;20358;50.272;19.026;2023-02-19T15:30:00;98270.91;;;0.72;61.33
34081;BME280;20358;50.272;19.026;2023-02-19T15:33:15;98270.25;;;0.67;61.62
34081;BME280;20358;50.272;19.026;2023-02-19T15:36:27;98291.50;;;0.78;61.47
34081;BME280;20358;50.272;19.026;2023-02-19T15:39:39;98299.50;;;0.72;61.62
34081;BME280;20358;50.272;19.026;2023-02-19T15:42:48;98287.84;;;0.58;62.45
34081;BME280;20358;50.272;19.026;2023-02-19T15:46:02;98303.25;;;0.65;63.22
34081;BME280;20358;50.272;19.026;2023-02-19T15:49:18;98318.50;;;0.74;62.93
34081;BME280;20358;50.272;19.026;2023-02-19T15:52:40;98321.69;;;0.57;61.96
34081;BME280;20358;50.272;19.026;2023-02-19T15:55:59;98325.34;;;0.51;60.95
34081;BME280;20358;50.272;19.026;2023-02-19T15:59:20;98326.06;;;0.55;60.82
34081;BME280;20358;50.272;19.026;2023-02-19T16:02:35;98341.19;;;0.69;61.44
34081;BME280;20358;50.272;19.026;2023-02-19T16:05:41;98337.91;;;0.64;60.72
34081;BME280;20358;50.272;19.026;2023-02-19T16:08:59;98357.75;;;0.66;60.68
34081;BME280;20358;50.272;19.026;2023-02-19T16:12:19;98360.69;;;0.57;61.39
34081;BME280;20358;50.272;19.026;2023-02-19T16:15:27;98357.75;;;0.66;61.39
34081;BME280;20358;50.272;19.026;2023-02-19T16:18:43;98370.81;;;0.65;61.55
34081;BME280;20358;50.272;19.026;2023-02-19T16:21:51;98376.84;;;0.65;61.04
34081;BME280;20358;50.272;19.026;2023-02-19T16:25:01;98280.84;;;0.11;60.70
34081;BME280;20358;50.272;19.026;2023-02-19T16:28:11;98381.31;;;0.62;60.02
34081;BME280;20358;50.272;19.026;2023-02-19T16:31:21;98400.28;;;0.64;58.64
34081;BME280;20358;50.272;19.026;2023-02-19T16:34:40;98394.78;;;0.73;59.20
34081;BME280;20358;50.272;19.026;2023-02-19T16:37:56;98405.22;;;0.71;59.06
34081;BME280;20358;50.272;19.026;2023-02-19T16:41:14;98422.72;;;0.66;58.71
34081;BME280;20358;50.272;19.026;2023-02-19T16:44:29;98421.97;;;0.63;58.45
34081;BME280;20358;50.272;19.026;2023-02-19T16:47:39;98438.66;;;0.55;58.67
34081;BME280;20358;50.272;19.026;2023-02-19T16:50:53;98429.97;;;0.56;59.32
34081;BME280;20358;50.272;19.026;2023-02-19T16:53:58;98454.75;;;0.40;58.83
34081;BME280;20358;50.272;19.026;2023-02-19T16:57:05;98458.59;;;0.55;58.85
34081;BME280;20358;50.272;19.026;2023-02-19T17:00:16;98474.19;;;0.55;58.65
34081;BME280;20358;50.272;19.026;2023-02-19T17:03:24;98483.75;;;0.54;58.52
34081;BME280;20358;50.272;19.026;2023-02-19T17:06:34;98461.53;;;0.44;58.68